sensor_id;sensor_type;location;lat;lon;timestamp;P1;durP1;ratioP1;P2;durP2;ratioP2
71902;SDS011;59778;50.310;18.780;2024-02-23T00:14:08;10.50;;;4.37;;
71902;SDS011;59778;50.310;18.780;2024-02-23T00:29:29;7.87;;;3.83;;
71902;SDS011;59778;50.310;18.780;2024-02-23T00:44:50;8.23;;;3.00;;
71902;SDS011;59778;50.310;18.780;2024-02-23T01:00:11;7.90;;;3.20;;
71902;SDS011;59778;50.310;18.780;2024-02-23T01:15:35;9.10;;;3.27;;
71902;SDS011;59778;50.310;18.780;2024-02-23T01:30:56;10.43;;;4.20;;
71902;SDS011;59778;50.310;18.780;2024-02-23T01:46:17;7.47;;;2.40;;
71902;SDS011;59778;50.310;18.780;2024-02-23T02:01:41;5.43;;;2.33;;
71902;SDS011;59778;50.310;18.780;2024-02-23T02:17:03;10.00;;;2.57;;
71902;SDS011;59778;50.310;18.780;2024-02-23T02:32:25;8.40;;;2.73;;
71902;SDS011;59778;50.310;18.780;2024-02-23T02:47:46;6.20;;;2.10;;
71902;SDS011;59778;50.310;18.780;2024-02-23T03:03:07;6.90;;;1.87;;
71902;SDS011;59778;50.310;18.780;2024-02-23T03:18:28;6.47;;;2.40;;
71902;SDS011;59778;50.310;18.780;2024-02-23T03:33:49;7.50;;;2.30;;
71902;SDS011;59778;50.310;18.780;2024-02-23T03:49:10;6.73;;;2.93;;
71902;SDS011;59778;50.310;18.780;2024-02-23T04:04:32;8.83;;;3.27;;
71902;SDS011;59778;50.310;18.780;2024-02-23T04:19:54;9.53;;;3.40;;
71902;SDS011;59778;50.310;18.780;2024-02-23T04:35:15;11.03;;;4.53;;
71902;SDS011;59778;50.310;18.780;2024-02-23T04:50:36;11.00;;;4.97;;
71902;SDS011;59778;50.310;18.780;2024-02-23T05:05:57;10.70;;;5.27;;
71902;SDS011;59778;50.310;18.780;2024-02-23T05:21:18;11.83;;;5.63;;
71902;SDS011;59778;50.310;18.780;2024-02-23T05:36:40;12.53;;;5.13;;
71902;SDS011;59778;50.310;18.780;2024-02-23T05:52:01;16.93;;;8.50;;
71902;SDS011;59778;50.310;18.780;2024-02-23T06:07:22;18.57;;;7.53;;
71902;SDS011;59778;50.310;18.780;2024-02-23T06:22:49;15.20;;;7.77;;
71902;SDS011;59778;50.310;18.780;2024-02-23T06:38:10;20.93;;;9.70;;
71902;SDS011;59778;50.310;18.780;2024-02-23T06:53:31;40.77;;;13.93;;
71902;SDS011;59778;50.310;18.780;2024-02-23T07:08:52;30.27;;;14.53;;
71902;SDS011;59778;50.310;18.780;2024-02-23T07:24:15;30.57;;;14.57;;
71902;SDS011;59778;50.310;18.780;2024-02-23T07:39:36;21.97;;;11.03;;
71902;SDS011;59778;50.310;18.780;2024-02-23T07:54:57;24.20;;;10.60;;
71902;SDS011;59778;50.310;18.780;2024-02-23T08:10:19;29.63;;;10.83;;
71902;SDS011;59778;50.310;18.780;2024-02-23T08:25:41;16.90;;;8.57;;
71902;SDS011;59778;50.310;18.780;2024-02-23T08:41:02;20.97;;;9.47;;
71902;SDS011;59778;50.310;18.780;2024-02-23T08:56:24;18.27;;;8.07;;
71902;SDS011;59778;50.310;18.780;2024-02-23T09:11:45;17.60;;;7.13;;
71902;SDS011;59778;50.310;18.780;2024-02-23T09:27:06;10.90;;;5.40;;
71902;SDS011;59778;50.310;18.780;2024-02-23T09:42:29;11.73;;;3.80;;
71902;SDS011;59778;50.310;18.780;2024-02-23T09:57:55;7.90;;;3.33;;
71902;SDS011;59778;50.310;18.780;2024-02-23T10:13:19;8.27;;;3.53;;
71902;SDS011;59778;50.310;18.780;2024-02-23T10:28:41;9.83;;;4.73;;
71902;SDS011;59778;50.310;18.780;2024-02-23T10:44:02;12.23;;;5.00;;
71902;SDS011;59778;50.310;18.780;2024-02-23T10:59:24;9.73;;;4.50;;
71902;SDS011;59778;50.310;18.780;2024-02-23T11:14:45;15.60;;;5.60;;
71902;SDS011;59778;50.310;18.780;2024-02-23T11:30:09;14.40;;;5.90;;
71902;SDS011;59778;50.310;18.780;2024-02-23T11:45:34;12.60;;;4.83;;
71902;SDS011;59778;50.310;18.780;2024-02-23T12:00:55;13.30;;;6.30;;
71902;SDS011;59778;50.310;18.780;2024-02-23T12:16:16;15.17;;;7.03;;
71902;SDS011;59778;50.310;18.780;2024-02-23T12:31:37;12.10;;;6.47;;
71902;SDS011;59778;50.310;18.780;2024-02-23T12:46:58;17.73;;;7.47;;
71902;SDS011;59778;50.310;18.780;2024-02-23T13:02:19;14.97;;;7.07;;
71902;SDS011;59778;50.310;18.780;2024-02-23T13:17:40;14.50;;;5.87;;
71902;SDS011;59778;50.310;18.780;2024-02-23T13:33:02;10.07;;;3.90;;
71902;SDS011;59778;50.310;18.780;2024-02-23T13:48:23;12.77;;;4.93;;
71902;SDS011;59778;50.310;18.780;2024-02-23T14:03:44;12.67;;;4.73;;
71902;SDS011;59778;50.310;18.780;2024-02-23T14:19:05;12.20;;;5.20;;
71902;SDS011;59778;50.310;18.780;2024-02-23T14:34:27;12.80;;;5.33;;
71902;SDS011;59778;50.310;18.780;2024-02-23T14:49:48;13.97;;;5.40;;
71902;SDS011;59778;50.310;18.780;2024-02-23T15:05:09;24.70;;;7.30;;
71902;SDS011;59778;50.310;18.780;2024-02-23T15:20:30;36.53;;;13.50;;
71902;SDS011;59778;50.310;18.780;2024-02-23T15:35:51;45.50;;;18.53;;
71902;SDS011;59778;50.310;18.780;2024-02-23T15:51:12;90.93;;;30.20;;
71902;SDS011;59778;50.310;18.780;2024-02-23T16:06:34;26.87;;;11.93;;
71902;SDS011;59778;50.310;18.780;2024-02-23T16:21:56;106.53;;;39.03;;
71902;SDS011;59778;50.310;18.780;2024-02-23T16:37:17;34.20;;;15.80;;
71902;SDS011;59778;50.310;18.780;2024-02-23T16:52:39;44.30;;;20.40;;
71902;SDS011;59778;50.310;18.780;2024-02-23T17:08:00;45.43;;;19.83;;
71902;SDS011;59778;50.310;18.780;2024-02-23T17:23:21;42.23;;;22.23;;
71902;SDS011;59778;50.310;18.780;2024-02-23T17:38:44;42.37;;;18.60;;
71902;SDS011;59778;50.310;18.780;2024-02-23T17:54:05;36.90;;;18.60;;
71902;SDS011;59778;50.310;18.780;2024-02-23T18:09:26;53.27;;;25.07;;
71902;SDS011;59778;50.310;18.780;2024-02-23T18:24:47;56.90;;;28.80;;
71902;SDS011;59778;50.310;18.780;2024-02-23T18:40:09;66.30;;;31.90;;
71902;SDS011;59778;50.310;18.780;2024-02-23T18:55:31;46.90;;;22.43;;
71902;SDS011;59778;50.310;18.780;2024-02-23T19:10:52;54.27;;;26.17;;
71902;SDS011;59778;50.310;18.780;2024-02-23T19:26:13;43.10;;;20.83;;
71902;SDS011;59778;50.310;18.780;2024-02-23T19:41:34;41.97;;;20.37;;
71902;SDS011;59778;50.310;18.780;2024-02-23T19:56:55;40.17;;;21.87;;
71902;SDS011;59778;50.310;18.780;2024-02-23T20:12:16;40.37;;;17.77;;
71902;SDS011;59778;50.310;18.780;2024-02-23T20:27:39;42.03;;;19.17;;
71902;SDS011;59778;50.310;18.780;2024-02-23T20:43:02;45.17;;;18.83;;
71902;SDS011;59778;50.310;18.780;2024-02-23T20:58:23;45.03;;;18.30;;
71902;SDS011;59778;50.310;18.780;2024-02-23T21:13:44;40.90;;;15.33;;
71902;SDS011;59778;50.310;18.780;2024-02-23T21:29:06;45.03;;;16.77;;
71902;SDS011;59778;50.310;18.780;2024-02-23T21:44:28;33.47;;;13.80;;
71902;SDS011;59778;50.310;18.780;2024-02-23T21:59:49;39.17;;;15.60;;
71902;SDS011;59778;50.310;18.780;2024-02-23T22:15:13;38.83;;;14.77;;
71902;SDS011;59778;50.310;18.780;2024-02-23T22:30:34;27.17;;;12.57;;
71902;SDS011;59778;50.310;18.780;2024-02-23T22:45:55;29.10;;;10.97;;
71902;SDS011;59778;50.310;18.780;2024-02-23T23:01:21;24.83;;;10.97;;
71902;SDS011;59778;50.310;18.780;2024-02-23T23:16:42;26.87;;;10.20;;
71902;SDS011;59778;50.310;18.780;2024-02-23T23:32:04;24.73;;;8.83;;
71902;SDS011;59778;50.310;18.780;2024-02-23T23:47:25;14.33;;;7.03;;
